KCDN/CDN METAR and TAF weather

Enter ICAO airport designator
Station Type Date Time Source
KCDN METAR 2020/09/22 03:55 UTC NOAA

KCDN 220355Z AUTO 00000KT 10SM SCT039 12/10 A3036 RMK AO2


Station Type Date Time Source
KCDN Decoded METAR 2020/09/22 03:55 UTC NOAA

Station name not available
Sep 21, 2020 - 11:55 PM EDT / 2020.09.22 0355 UTC
Wind: Calm:0
Visibility: 10 mile(s):0
Sky conditions: partly cloudy
Temperature: 53 F (12 C)
Dew Point: 50 F (10 C)
Relative Humidity: 87%
Pressure (altimeter): 30.36 in. Hg (1028 hPa)
ob: KCDN 220355Z AUTO 00000KT 10SM SCT039 12/10 A3036 RMK AO2
cycle: 4

Station Type Date Time Source
KCDN TAF UTC NOAA

Error!

Example: see airport list